sensor_id;sensor_type;location;lat;lon;timestamp;P1;durP1;ratioP1;P2;durP2;ratioP2
7100;SDS011;67978;48.710;8.720;2023-03-05T00:02:06;29.30;;;11.10;;
7100;SDS011;67978;48.710;8.720;2023-03-05T00:04:33;22.83;;;11.03;;
7100;SDS011;67978;48.710;8.720;2023-03-05T00:07:00;19.40;;;9.30;;
7100;SDS011;67978;48.710;8.720;2023-03-05T00:09:27;16.60;;;7.97;;
7100;SDS011;67978;48.710;8.720;2023-03-05T00:11:54;18.03;;;8.27;;
7100;SDS011;67978;48.710;8.720;2023-03-05T00:14:22;18.67;;;9.53;;
7100;SDS011;67978;48.710;8.720;2023-03-05T00:16:49;20.77;;;9.97;;
7100;SDS011;67978;48.710;8.720;2023-03-05T00:19:16;21.30;;;10.30;;
7100;SDS011;67978;48.710;8.720;2023-03-05T00:21:43;18.53;;;9.10;;
7100;SDS011;67978;48.710;8.720;2023-03-05T00:24:10;16.43;;;7.97;;
7100;SDS011;67978;48.710;8.720;2023-03-05T00:26:39;15.90;;;7.63;;
7100;SDS011;67978;48.710;8.720;2023-03-05T00:29:07;16.87;;;8.40;;
7100;SDS011;67978;48.710;8.720;2023-03-05T00:31:36;16.37;;;8.10;;
7100;SDS011;67978;48.710;8.720;2023-03-05T00:34:04;17.37;;;8.97;;
7100;SDS011;67978;48.710;8.720;2023-03-05T00:36:33;21.23;;;9.63;;
7100;SDS011;67978;48.710;8.720;2023-03-05T00:39:00;24.37;;;10.23;;
7100;SDS011;67978;48.710;8.720;2023-03-05T00:41:27;20.03;;;9.90;;
7100;SDS011;67978;48.710;8.720;2023-03-05T00:43:54;18.53;;;8.97;;
7100;SDS011;67978;48.710;8.720;2023-03-05T00:46:21;18.30;;;9.27;;
7100;SDS011;67978;48.710;8.720;2023-03-05T00:48:49;17.03;;;8.80;;
7100;SDS011;67978;48.710;8.720;2023-03-05T00:51:16;18.60;;;9.37;;
7100;SDS011;67978;48.710;8.720;2023-03-05T00:53:43;16.00;;;7.50;;
7100;SDS011;67978;48.710;8.720;2023-03-05T00:56:10;16.23;;;8.87;;
7100;SDS011;67978;48.710;8.720;2023-03-05T00:58:37;17.17;;;8.53;;
7100;SDS011;67978;48.710;8.720;2023-03-05T01:01:04;17.17;;;8.87;;
7100;SDS011;67978;48.710;8.720;2023-03-05T01:03:32;18.33;;;8.70;;
7100;SDS011;67978;48.710;8.720;2023-03-05T01:06:02;20.17;;;7.73;;
7100;SDS011;67978;48.710;8.720;2023-03-05T01:08:31;17.80;;;8.43;;
7100;SDS011;67978;48.710;8.720;2023-03-05T01:10:59;14.03;;;7.20;;
7100;SDS011;67978;48.710;8.720;2023-03-05T01:13:26;19.63;;;7.90;;
7100;SDS011;67978;48.710;8.720;2023-03-05T01:15:53;19.37;;;8.27;;
7100;SDS011;67978;48.710;8.720;2023-03-05T01:18:20;22.90;;;8.93;;
7100;SDS011;67978;48.710;8.720;2023-03-05T01:20:47;18.47;;;8.77;;
7100;SDS011;67978;48.710;8.720;2023-03-05T01:23:15;17.40;;;8.33;;
7100;SDS011;67978;48.710;8.720;2023-03-05T01:25:42;18.47;;;7.70;;
7100;SDS011;67978;48.710;8.720;2023-03-05T01:28:09;13.07;;;6.43;;
7100;SDS011;67978;48.710;8.720;2023-03-05T01:30:36;16.50;;;6.77;;
7100;SDS011;67978;48.710;8.720;2023-03-05T01:33:03;12.17;;;6.53;;
7100;SDS011;67978;48.710;8.720;2023-03-05T01:35:30;15.40;;;6.77;;
7100;SDS011;67978;48.710;8.720;2023-03-05T01:37:57;14.23;;;6.93;;
7100;SDS011;67978;48.710;8.720;2023-03-05T01:40:29;16.67;;;6.80;;
7100;SDS011;67978;48.710;8.720;2023-03-05T01:42:58;13.47;;;6.70;;
7100;SDS011;67978;48.710;8.720;2023-03-05T01:45:28;14.07;;;5.90;;
7100;SDS011;67978;48.710;8.720;2023-03-05T01:47:56;13.20;;;6.00;;
7100;SDS011;67978;48.710;8.720;2023-03-05T01:50:23;16.60;;;6.30;;
7100;SDS011;67978;48.710;8.720;2023-03-05T01:52:52;14.57;;;6.47;;
7100;SDS011;67978;48.710;8.720;2023-03-05T01:55:26;12.17;;;5.87;;
7100;SDS011;67978;48.710;8.720;2023-03-05T01:57:58;11.30;;;6.33;;
7100;SDS011;67978;48.710;8.720;2023-03-05T02:00:29;17.93;;;6.97;;
7100;SDS011;67978;48.710;8.720;2023-03-05T02:03:04;17.10;;;6.57;;
7100;SDS011;67978;48.710;8.720;2023-03-05T02:05:33;18.17;;;6.87;;
7100;SDS011;67978;48.710;8.720;2023-03-05T02:08:03;17.43;;;6.93;;
7100;SDS011;67978;48.710;8.720;2023-03-05T02:10:34;13.50;;;6.37;;
7100;SDS011;67978;48.710;8.720;2023-03-05T02:13:04;16.93;;;7.13;;
7100;SDS011;67978;48.710;8.720;2023-03-05T02:15:34;11.87;;;6.43;;
7100;SDS011;67978;48.710;8.720;2023-03-05T02:18:01;15.73;;;6.80;;
7100;SDS011;67978;48.710;8.720;2023-03-05T02:20:30;17.80;;;7.43;;
7100;SDS011;67978;48.710;8.720;2023-03-05T02:23:11;16.10;;;7.33;;
7100;SDS011;67978;48.710;8.720;2023-03-05T02:25:38;13.27;;;5.93;;
7100;SDS011;67978;48.710;8.720;2023-03-05T02:28:07;11.53;;;6.17;;
7100;SDS011;67978;48.710;8.720;2023-03-05T02:30:40;10.40;;;5.67;;
7100;SDS011;67978;48.710;8.720;2023-03-05T02:33:07;12.43;;;6.60;;
7100;SDS011;67978;48.710;8.720;2023-03-05T02:35:33;9.67;;;5.03;;
7100;SDS011;67978;48.710;8.720;2023-03-05T02:38:01;12.80;;;5.63;;
7100;SDS011;67978;48.710;8.720;2023-03-05T02:40:29;13.33;;;5.97;;
7100;SDS011;67978;48.710;8.720;2023-03-05T02:42:56;13.70;;;6.00;;
7100;SDS011;67978;48.710;8.720;2023-03-05T02:45:23;15.47;;;6.03;;
7100;SDS011;67978;48.710;8.720;2023-03-05T02:47:50;16.57;;;6.73;;
7100;SDS011;67978;48.710;8.720;2023-03-05T02:50:17;17.53;;;6.97;;
7100;SDS011;67978;48.710;8.720;2023-03-05T02:52:43;13.20;;;5.27;;
7100;SDS011;67978;48.710;8.720;2023-03-05T02:55:10;12.17;;;6.03;;
7100;SDS011;67978;48.710;8.720;2023-03-05T02:57:38;15.40;;;7.10;;
7100;SDS011;67978;48.710;8.720;2023-03-05T03:00:05;11.20;;;5.13;;
7100;SDS011;67978;48.710;8.720;2023-03-05T03:02:34;10.93;;;5.70;;
7100;SDS011;67978;48.710;8.720;2023-03-05T03:05:00;14.83;;;6.30;;
7100;SDS011;67978;48.710;8.720;2023-03-05T03:07:27;15.97;;;6.30;;
7100;SDS011;67978;48.710;8.720;2023-03-05T03:09:54;17.30;;;6.67;;
7100;SDS011;67978;48.710;8.720;2023-03-05T03:12:21;13.73;;;6.87;;
7100;SDS011;67978;48.710;8.720;2023-03-05T03:14:49;16.60;;;7.73;;
7100;SDS011;67978;48.710;8.720;2023-03-05T03:17:17;19.57;;;8.07;;
7100;SDS011;67978;48.710;8.720;2023-03-05T03:19:44;17.07;;;7.10;;
7100;SDS011;67978;48.710;8.720;2023-03-05T03:22:18;19.23;;;7.40;;
7100;SDS011;67978;48.710;8.720;2023-03-05T03:24:45;16.30;;;7.13;;
7100;SDS011;67978;48.710;8.720;2023-03-05T03:27:12;20.97;;;6.83;;
7100;SDS011;67978;48.710;8.720;2023-03-05T03:29:39;22.93;;;7.43;;
7100;SDS011;67978;48.710;8.720;2023-03-05T03:32:07;17.47;;;6.97;;
7100;SDS011;67978;48.710;8.720;2023-03-05T03:34:34;17.20;;;7.03;;
7100;SDS011;67978;48.710;8.720;2023-03-05T03:37:01;17.43;;;7.63;;
7100;SDS011;67978;48.710;8.720;2023-03-05T03:39:27;17.67;;;7.13;;
7100;SDS011;67978;48.710;8.720;2023-03-05T03:41:54;18.33;;;6.80;;
7100;SDS011;67978;48.710;8.720;2023-03-05T03:44:21;16.30;;;7.87;;
7100;SDS011;67978;48.710;8.720;2023-03-05T03:46:49;19.53;;;7.93;;
7100;SDS011;67978;48.710;8.720;2023-03-05T03:49:20;20.03;;;7.17;;
7100;SDS011;67978;48.710;8.720;2023-03-05T03:51:49;18.53;;;8.07;;
7100;SDS011;67978;48.710;8.720;2023-03-05T03:54:18;13.13;;;6.77;;
7100;SDS011;67978;48.710;8.720;2023-03-05T03:56:45;15.77;;;7.30;;
7100;SDS011;67978;48.710;8.720;2023-03-05T03:59:12;17.90;;;6.97;;
7100;SDS011;67978;48.710;8.720;2023-03-05T04:01:40;16.53;;;7.03;;
7100;SDS011;67978;48.710;8.720;2023-03-05T04:04:07;21.33;;;7.37;;
7100;SDS011;67978;48.710;8.720;2023-03-05T04:06:37;15.53;;;6.70;;
7100;SDS011;67978;48.710;8.720;2023-03-05T04:09:04;15.97;;;6.40;;
7100;SDS011;67978;48.710;8.720;2023-03-05T04:11:32;15.27;;;6.70;;
7100;SDS011;67978;48.710;8.720;2023-03-05T04:13:58;15.67;;;7.80;;
7100;SDS011;67978;48.710;8.720;2023-03-05T04:16:25;17.60;;;7.80;;
7100;SDS011;67978;48.710;8.720;2023-03-05T04:18:52;17.87;;;8.17;;
7100;SDS011;67978;48.710;8.720;2023-03-05T04:21:19;19.77;;;7.70;;
7100;SDS011;67978;48.710;8.720;2023-03-05T04:23:47;18.10;;;8.00;;
7100;SDS011;67978;48.710;8.720;2023-03-05T04:26:14;20.80;;;8.17;;
7100;SDS011;67978;48.710;8.720;2023-03-05T04:28:41;20.27;;;7.37;;
7100;SDS011;67978;48.710;8.720;2023-03-05T04:31:08;17.13;;;7.93;;
7100;SDS011;67978;48.710;8.720;2023-03-05T04:33:34;22.43;;;8.23;;
7100;SDS011;67978;48.710;8.720;2023-03-05T04:36:01;21.97;;;8.90;;
7100;SDS011;67978;48.710;8.720;2023-03-05T04:38:28;17.30;;;8.17;;
7100;SDS011;67978;48.710;8.720;2023-03-05T04:40:56;23.03;;;8.63;;
7100;SDS011;67978;48.710;8.720;2023-03-05T04:43:23;21.17;;;8.10;;
7100;SDS011;67978;48.710;8.720;2023-03-05T04:45:50;25.50;;;9.37;;
7100;SDS011;67978;48.710;8.720;2023-03-05T04:48:17;24.00;;;9.00;;
7100;SDS011;67978;48.710;8.720;2023-03-05T04:50:43;22.07;;;9.63;;
7100;SDS011;67978;48.710;8.720;2023-03-05T04:53:10;24.27;;;9.97;;
7100;SDS011;67978;48.710;8.720;2023-03-05T04:55:37;20.70;;;9.53;;
7100;SDS011;67978;48.710;8.720;2023-03-05T04:58:05;22.07;;;8.97;;
7100;SDS011;67978;48.710;8.720;2023-03-05T05:00:32;21.87;;;9.30;;
7100;SDS011;67978;48.710;8.720;2023-03-05T05:02:58;23.73;;;9.97;;
7100;SDS011;67978;48.710;8.720;2023-03-05T05:05:26;17.10;;;8.37;;
7100;SDS011;67978;48.710;8.720;2023-03-05T05:07:55;20.33;;;9.17;;
7100;SDS011;67978;48.710;8.720;2023-03-05T05:10:23;20.07;;;9.07;;
7100;SDS011;67978;48.710;8.720;2023-03-05T05:12:51;19.03;;;8.87;;
7100;SDS011;67978;48.710;8.720;2023-03-05T05:15:19;22.67;;;9.87;;
7100;SDS011;67978;48.710;8.720;2023-03-05T05:17:46;20.33;;;9.23;;
7100;SDS011;67978;48.710;8.720;2023-03-05T05:20:14;22.07;;;9.17;;
7100;SDS011;67978;48.710;8.720;2023-03-05T05:22:42;24.80;;;9.33;;
7100;SDS011;67978;48.710;8.720;2023-03-05T05:25:09;21.43;;;9.03;;
7100;SDS011;67978;48.710;8.720;2023-03-05T05:27:37;25.13;;;9.53;;
7100;SDS011;67978;48.710;8.720;2023-03-05T05:30:05;22.70;;;9.57;;
7100;SDS011;67978;48.710;8.720;2023-03-05T05:32:35;23.33;;;9.97;;
7100;SDS011;67978;48.710;8.720;2023-03-05T05:35:01;24.20;;;9.67;;
7100;SDS011;67978;48.710;8.720;2023-03-05T05:37:29;24.00;;;9.60;;
7100;SDS011;67978;48.710;8.720;2023-03-05T05:39:55;22.80;;;9.63;;
7100;SDS011;67978;48.710;8.720;2023-03-05T05:42:23;27.17;;;9.57;;
7100;SDS011;67978;48.710;8.720;2023-03-05T05:44:50;17.43;;;9.13;;
7100;SDS011;67978;48.710;8.720;2023-03-05T05:47:17;29.40;;;10.13;;
7100;SDS011;67978;48.710;8.720;2023-03-05T05:49:46;23.37;;;9.27;;
7100;SDS011;67978;48.710;8.720;2023-03-05T05:52:12;22.40;;;8.93;;
7100;SDS011;67978;48.710;8.720;2023-03-05T05:54:39;20.80;;;8.97;;
7100;SDS011;67978;48.710;8.720;2023-03-05T05:57:06;20.50;;;8.63;;
7100;SDS011;67978;48.710;8.720;2023-03-05T05:59:33;23.27;;;9.27;;
7100;SDS011;67978;48.710;8.720;2023-03-05T06:02:01;23.03;;;8.90;;
7100;SDS011;67978;48.710;8.720;2023-03-05T06:04:28;18.40;;;9.20;;
7100;SDS011;67978;48.710;8.720;2023-03-05T06:06:56;22.63;;;8.93;;
7100;SDS011;67978;48.710;8.720;2023-03-05T06:09:23;19.13;;;9.00;;
7100;SDS011;67978;48.710;8.720;2023-03-05T06:11:50;21.73;;;9.03;;
7100;SDS011;67978;48.710;8.720;2023-03-05T06:14:17;21.27;;;8.90;;
7100;SDS011;67978;48.710;8.720;2023-03-05T06:16:44;17.63;;;8.20;;
7100;SDS011;67978;48.710;8.720;2023-03-05T06:19:11;19.10;;;8.60;;
7100;SDS011;67978;48.710;8.720;2023-03-05T06:21:39;20.50;;;8.33;;
7100;SDS011;67978;48.710;8.720;2023-03-05T06:24:08;16.10;;;8.70;;
7100;SDS011;67978;48.710;8.720;2023-03-05T06:26:36;20.40;;;8.30;;
7100;SDS011;67978;48.710;8.720;2023-03-05T06:29:03;19.00;;;9.03;;
7100;SDS011;67978;48.710;8.720;2023-03-05T06:31:30;19.00;;;7.97;;
7100;SDS011;67978;48.710;8.720;2023-03-05T06:33:57;19.40;;;8.43;;
7100;SDS011;67978;48.710;8.720;2023-03-05T06:36:26;18.60;;;8.60;;
7100;SDS011;67978;48.710;8.720;2023-03-05T06:38:53;24.33;;;8.77;;
7100;SDS011;67978;48.710;8.720;2023-03-05T06:41:23;20.10;;;8.73;;
7100;SDS011;67978;48.710;8.720;2023-03-05T06:43:52;18.40;;;8.60;;
7100;SDS011;67978;48.710;8.720;2023-03-05T06:46:21;18.80;;;9.63;;
7100;SDS011;67978;48.710;8.720;2023-03-05T06:48:50;17.27;;;8.77;;
7100;SDS011;67978;48.710;8.720;2023-03-05T06:51:20;17.87;;;7.77;;
7100;SDS011;67978;48.710;8.720;2023-03-05T06:53:49;18.97;;;8.87;;
7100;SDS011;67978;48.710;8.720;2023-03-05T06:56:17;18.40;;;9.43;;
7100;SDS011;67978;48.710;8.720;2023-03-05T06:58:48;20.37;;;8.13;;
7100;SDS011;67978;48.710;8.720;2023-03-05T07:01:17;18.80;;;8.57;;
7100;SDS011;67978;48.710;8.720;2023-03-05T07:03:47;18.20;;;8.40;;
7100;SDS011;67978;48.710;8.720;2023-03-05T07:06:14;15.77;;;7.63;;
7100;SDS011;67978;48.710;8.720;2023-03-05T07:08:42;20.03;;;8.67;;
7100;SDS011;67978;48.710;8.720;2023-03-05T07:11:09;17.10;;;9.00;;
7100;SDS011;67978;48.710;8.720;2023-03-05T07:13:38;18.97;;;8.93;;
7100;SDS011;67978;48.710;8.720;2023-03-05T07:16:07;17.70;;;8.10;;
7100;SDS011;67978;48.710;8.720;2023-03-05T07:18:36;16.57;;;8.33;;
7100;SDS011;67978;48.710;8.720;2023-03-05T07:21:03;16.90;;;8.47;;
7100;SDS011;67978;48.710;8.720;2023-03-05T07:23:31;19.30;;;8.37;;
7100;SDS011;67978;48.710;8.720;2023-03-05T07:25:59;17.90;;;8.53;;
7100;SDS011;67978;48.710;8.720;2023-03-05T07:28:27;17.20;;;7.23;;
7100;SDS011;67978;48.710;8.720;2023-03-05T07:30:55;15.93;;;8.00;;
7100;SDS011;67978;48.710;8.720;2023-03-05T07:33:24;18.60;;;8.37;;
7100;SDS011;67978;48.710;8.720;2023-03-05T07:35:51;15.43;;;8.17;;
7100;SDS011;67978;48.710;8.720;2023-03-05T07:38:17;16.03;;;8.00;;
7100;SDS011;67978;48.710;8.720;2023-03-05T07:40:44;17.80;;;8.70;;
7100;SDS011;67978;48.710;8.720;2023-03-05T07:43:11;21.00;;;9.10;;
7100;SDS011;67978;48.710;8.720;2023-03-05T07:45:38;18.37;;;8.40;;
7100;SDS011;67978;48.710;8.720;2023-03-05T07:48:06;15.83;;;7.70;;
7100;SDS011;67978;48.710;8.720;2023-03-05T07:50:34;20.13;;;7.90;;
7100;SDS011;67978;48.710;8.720;2023-03-05T07:53:01;20.90;;;8.17;;
7100;SDS011;67978;48.710;8.720;2023-03-05T07:55:28;16.60;;;8.53;;
7100;SDS011;67978;48.710;8.720;2023-03-05T07:57:55;17.17;;;8.47;;
7100;SDS011;67978;48.710;8.720;2023-03-05T08:00:22;16.67;;;8.87;;
7100;SDS011;67978;48.710;8.720;2023-03-05T08:02:48;21.77;;;10.37;;
7100;SDS011;67978;48.710;8.720;2023-03-05T08:05:15;17.60;;;8.63;;
7100;SDS011;67978;48.710;8.720;2023-03-05T08:07:43;19.67;;;9.93;;
7100;SDS011;67978;48.710;8.720;2023-03-05T08:10:10;18.33;;;9.97;;
7100;SDS011;67978;48.710;8.720;2023-03-05T08:12:37;23.47;;;10.77;;
7100;SDS011;67978;48.710;8.720;2023-03-05T08:15:04;28.33;;;15.10;;
7100;SDS011;67978;48.710;8.720;2023-03-05T08:17:32;28.43;;;12.90;;
7100;SDS011;67978;48.710;8.720;2023-03-05T08:19:59;24.90;;;13.13;;
7100;SDS011;67978;48.710;8.720;2023-03-05T08:22:29;26.90;;;12.13;;
7100;SDS011;67978;48.710;8.720;2023-03-05T08:24:59;22.87;;;10.63;;
7100;SDS011;67978;48.710;8.720;2023-03-05T08:27:27;21.37;;;11.20;;
7100;SDS011;67978;48.710;8.720;2023-03-05T08:29:53;20.70;;;9.80;;
7100;SDS011;67978;48.710;8.720;2023-03-05T08:32:20;19.33;;;10.03;;
7100;SDS011;67978;48.710;8.720;2023-03-05T08:34:47;23.70;;;10.77;;
7100;SDS011;67978;48.710;8.720;2023-03-05T08:37:14;17.07;;;8.37;;
7100;SDS011;67978;48.710;8.720;2023-03-05T08:39:41;17.57;;;8.50;;
7100;SDS011;67978;48.710;8.720;2023-03-05T08:42:09;22.73;;;9.77;;
7100;SDS011;67978;48.710;8.720;2023-03-05T08:44:36;21.47;;;11.03;;
7100;SDS011;67978;48.710;8.720;2023-03-05T08:47:02;16.83;;;9.13;;
7100;SDS011;67978;48.710;8.720;2023-03-05T08:49:29;16.57;;;8.10;;
7100;SDS011;67978;48.710;8.720;2023-03-05T08:51:56;17.73;;;8.50;;
7100;SDS011;67978;48.710;8.720;2023-03-05T08:54:23;18.83;;;9.17;;
7100;SDS011;67978;48.710;8.720;2023-03-05T08:56:50;19.17;;;9.77;;
7100;SDS011;67978;48.710;8.720;2023-03-05T08:59:18;18.83;;;9.83;;
7100;SDS011;67978;48.710;8.720;2023-03-05T09:01:45;23.60;;;11.43;;
7100;SDS011;67978;48.710;8.720;2023-03-05T09:04:11;19.33;;;8.97;;
7100;SDS011;67978;48.710;8.720;2023-03-05T09:06:39;18.33;;;9.30;;
7100;SDS011;67978;48.710;8.720;2023-03-05T09:09:06;18.67;;;10.93;;
7100;SDS011;67978;48.710;8.720;2023-03-05T09:11:34;17.70;;;9.53;;
7100;SDS011;67978;48.710;8.720;2023-03-05T09:14:01;22.00;;;10.70;;
7100;SDS011;67978;48.710;8.720;2023-03-05T09:16:29;20.33;;;9.30;;
7100;SDS011;67978;48.710;8.720;2023-03-05T09:18:57;21.33;;;10.57;;
7100;SDS011;67978;48.710;8.720;2023-03-05T09:21:23;21.23;;;10.10;;
7100;SDS011;67978;48.710;8.720;2023-03-05T09:23:51;18.40;;;9.67;;
7100;SDS011;67978;48.710;8.720;2023-03-05T09:26:23;18.97;;;9.47;;
7100;SDS011;67978;48.710;8.720;2023-03-05T09:28:50;16.57;;;9.03;;
7100;SDS011;67978;48.710;8.720;2023-03-05T09:31:17;17.03;;;8.57;;
7100;SDS011;67978;48.710;8.720;2023-03-05T09:33:45;16.33;;;8.00;;
7100;SDS011;67978;48.710;8.720;2023-03-05T09:36:16;16.67;;;8.63;;
7100;SDS011;67978;48.710;8.720;2023-03-05T09:38:46;15.33;;;7.70;;
7100;SDS011;67978;48.710;8.720;2023-03-05T09:41:14;14.17;;;8.00;;
7100;SDS011;67978;48.710;8.720;2023-03-05T09:43:52;15.33;;;7.87;;
7100;SDS011;67978;48.710;8.720;2023-03-05T09:46:33;16.93;;;8.20;;
7100;SDS011;67978;48.710;8.720;2023-03-05T09:49:15;17.33;;;8.50;;
7100;SDS011;67978;48.710;8.720;2023-03-05T09:51:47;16.87;;;8.80;;
7100;SDS011;67978;48.710;8.720;2023-03-05T09:54:20;14.77;;;8.07;;
7100;SDS011;67978;48.710;8.720;2023-03-05T09:56:55;16.47;;;8.07;;
7100;SDS011;67978;48.710;8.720;2023-03-05T09:59:29;15.83;;;8.57;;
7100;SDS011;67978;48.710;8.720;2023-03-05T10:02:11;15.10;;;8.03;;
7100;SDS011;67978;48.710;8.720;2023-03-05T10:04:46;18.13;;;8.40;;
7100;SDS011;67978;48.710;8.720;2023-03-05T10:07:18;17.60;;;9.00;;
7100;SDS011;67978;48.710;8.720;2023-03-05T10:09:53;11.67;;;7.67;;
7100;SDS011;67978;48.710;8.720;2023-03-05T10:12:25;16.30;;;9.03;;
7100;SDS011;67978;48.710;8.720;2023-03-05T10:15:04;14.47;;;8.53;;
7100;SDS011;67978;48.710;8.720;2023-03-05T10:17:45;14.33;;;8.17;;
7100;SDS011;67978;48.710;8.720;2023-03-05T10:20:28;14.83;;;7.80;;
7100;SDS011;67978;48.710;8.720;2023-03-05T10:23:19;14.60;;;8.37;;
7100;SDS011;67978;48.710;8.720;2023-03-05T10:26:17;14.63;;;8.17;;
7100;SDS011;67978;48.710;8.720;2023-03-05T10:28:57;14.10;;;7.70;;
7100;SDS011;67978;48.710;8.720;2023-03-05T10:31:55;13.73;;;7.27;;
7100;SDS011;67978;48.710;8.720;2023-03-05T10:34:39;12.70;;;7.43;;
7100;SDS011;67978;48.710;8.720;2023-03-05T10:37:34;10.23;;;6.67;;
7100;SDS011;67978;48.710;8.720;2023-03-05T10:40:26;13.13;;;6.80;;
7100;SDS011;67978;48.710;8.720;2023-03-05T10:43:00;9.73;;;5.97;;
7100;SDS011;67978;48.710;8.720;2023-03-05T10:45:39;9.60;;;6.37;;
7100;SDS011;67978;48.710;8.720;2023-03-05T10:48:10;11.03;;;5.97;;
7100;SDS011;67978;48.710;8.720;2023-03-05T10:50:52;9.63;;;5.80;;
7100;SDS011;67978;48.710;8.720;2023-03-05T10:53:27;12.27;;;6.53;;
7100;SDS011;67978;48.710;8.720;2023-03-05T10:56:00;15.10;;;7.90;;
7100;SDS011;67978;48.710;8.720;2023-03-05T10:58:28;18.73;;;10.17;;
7100;SDS011;67978;48.710;8.720;2023-03-05T11:00:57;18.10;;;10.23;;
7100;SDS011;67978;48.710;8.720;2023-03-05T11:03:35;21.53;;;10.53;;
7100;SDS011;67978;48.710;8.720;2023-03-05T11:06:13;16.70;;;8.40;;
7100;SDS011;67978;48.710;8.720;2023-03-05T11:08:42;22.23;;;9.43;;
7100;SDS011;67978;48.710;8.720;2023-03-05T11:11:11;21.50;;;9.57;;
7100;SDS011;67978;48.710;8.720;2023-03-05T11:13:55;20.90;;;9.17;;
7100;SDS011;67978;48.710;8.720;2023-03-05T11:16:25;20.33;;;8.80;;
7100;SDS011;67978;48.710;8.720;2023-03-05T11:19:14;21.37;;;9.27;;
7100;SDS011;67978;48.710;8.720;2023-03-05T11:21:44;20.57;;;8.80;;
7100;SDS011;67978;48.710;8.720;2023-03-05T11:24:14;21.47;;;10.40;;
7100;SDS011;67978;48.710;8.720;2023-03-05T11:26:47;23.80;;;10.10;;
7100;SDS011;67978;48.710;8.720;2023-03-05T11:29:17;23.40;;;10.60;;
7100;SDS011;67978;48.710;8.720;2023-03-05T11:31:47;22.03;;;10.30;;
7100;SDS011;67978;48.710;8.720;2023-03-05T11:34:22;22.53;;;11.60;;
7100;SDS011;67978;48.710;8.720;2023-03-05T11:36:58;23.57;;;10.10;;
7100;SDS011;67978;48.710;8.720;2023-03-05T11:39:31;24.77;;;11.20;;
7100;SDS011;67978;48.710;8.720;2023-03-05T11:42:02;24.97;;;10.57;;
7100;SDS011;67978;48.710;8.720;2023-03-05T11:44:33;27.50;;;10.47;;
7100;SDS011;67978;48.710;8.720;2023-03-05T11:47:12;20.57;;;11.27;;
7100;SDS011;67978;48.710;8.720;2023-03-05T11:49:49;23.70;;;11.93;;
7100;SDS011;67978;48.710;8.720;2023-03-05T11:52:20;23.30;;;10.63;;
7100;SDS011;67978;48.710;8.720;2023-03-05T11:54:55;23.33;;;11.27;;
7100;SDS011;67978;48.710;8.720;2023-03-05T11:57:29;22.00;;;11.20;;
7100;SDS011;67978;48.710;8.720;2023-03-05T12:00:10;22.27;;;12.13;;
7100;SDS011;67978;48.710;8.720;2023-03-05T12:02:41;21.83;;;11.73;;
7100;SDS011;67978;48.710;8.720;2023-03-05T12:05:13;25.67;;;11.70;;
7100;SDS011;67978;48.710;8.720;2023-03-05T12:07:41;26.60;;;11.70;;
7100;SDS011;67978;48.710;8.720;2023-03-05T12:10:15;21.37;;;11.30;;
7100;SDS011;67978;48.710;8.720;2023-03-05T12:12:46;20.67;;;10.93;;
7100;SDS011;67978;48.710;8.720;2023-03-05T12:15:39;21.47;;;10.07;;
7100;SDS011;67978;48.710;8.720;2023-03-05T12:18:15;23.50;;;11.83;;
7100;SDS011;67978;48.710;8.720;2023-03-05T12:20:56;23.57;;;11.90;;
7100;SDS011;67978;48.710;8.720;2023-03-05T12:23:42;27.10;;;11.77;;
7100;SDS011;67978;48.710;8.720;2023-03-05T12:26:15;26.93;;;13.57;;
7100;SDS011;67978;48.710;8.720;2023-03-05T12:28:53;23.13;;;12.00;;
7100;SDS011;67978;48.710;8.720;2023-03-05T12:31:26;22.13;;;11.40;;
7100;SDS011;67978;48.710;8.720;2023-03-05T12:37:12;22.23;;;11.70;;
7100;SDS011;67978;48.710;8.720;2023-03-05T12:40:19;24.97;;;11.87;;
7100;SDS011;67978;48.710;8.720;2023-03-05T12:42:53;23.00;;;12.00;;
7100;SDS011;67978;48.710;8.720;2023-03-05T12:45:32;15.93;;;8.43;;
7100;SDS011;67978;48.710;8.720;2023-03-05T12:51:26;18.53;;;9.03;;
7100;SDS011;67978;48.710;8.720;2023-03-05T12:54:20;20.90;;;9.43;;
7100;SDS011;67978;48.710;8.720;2023-03-05T12:56:58;25.43;;;10.17;;
7100;SDS011;67978;48.710;8.720;2023-03-05T12:59:31;21.80;;;10.77;;
7100;SDS011;67978;48.710;8.720;2023-03-05T13:05:01;23.17;;;10.13;;
7100;SDS011;67978;48.710;8.720;2023-03-05T13:07:33;20.93;;;10.73;;
7100;SDS011;67978;48.710;8.720;2023-03-05T13:10:00;18.97;;;10.60;;
7100;SDS011;67978;48.710;8.720;2023-03-05T13:12:28;21.30;;;10.30;;
7100;SDS011;67978;48.710;8.720;2023-03-05T13:14:57;22.07;;;10.33;;
7100;SDS011;67978;48.710;8.720;2023-03-05T13:17:31;20.83;;;10.50;;
7100;SDS011;67978;48.710;8.720;2023-03-05T13:20:21;19.07;;;9.70;;
7100;SDS011;67978;48.710;8.720;2023-03-05T13:23:07;23.77;;;10.33;;
7100;SDS011;67978;48.710;8.720;2023-03-05T13:25:45;22.63;;;10.33;;
7100;SDS011;67978;48.710;8.720;2023-03-05T13:28:24;19.27;;;9.77;;
7100;SDS011;67978;48.710;8.720;2023-03-05T13:30:52;21.47;;;9.57;;
7100;SDS011;67978;48.710;8.720;2023-03-05T13:33:27;20.53;;;10.77;;
7100;SDS011;67978;48.710;8.720;2023-03-05T13:35:56;21.13;;;10.27;;
7100;SDS011;67978;48.710;8.720;2023-03-05T13:38:24;23.47;;;10.10;;
7100;SDS011;67978;48.710;8.720;2023-03-05T13:41:04;19.53;;;9.13;;
7100;SDS011;67978;48.710;8.720;2023-03-05T13:43:43;20.40;;;8.77;;
7100;SDS011;67978;48.710;8.720;2023-03-05T13:46:13;26.10;;;9.27;;
7100;SDS011;67978;48.710;8.720;2023-03-05T13:48:50;18.40;;;8.40;;
7100;SDS011;67978;48.710;8.720;2023-03-05T13:51:17;16.60;;;8.07;;
7100;SDS011;67978;48.710;8.720;2023-03-05T13:53:44;12.73;;;6.73;;
7100;SDS011;67978;48.710;8.720;2023-03-05T13:56:12;12.90;;;6.43;;
7100;SDS011;67978;48.710;8.720;2023-03-05T13:58:43;14.37;;;6.27;;
7100;SDS011;67978;48.710;8.720;2023-03-05T14:01:30;14.33;;;6.23;;
7100;SDS011;67978;48.710;8.720;2023-03-05T14:04:02;11.70;;;5.73;;
7100;SDS011;67978;48.710;8.720;2023-03-05T14:06:33;12.37;;;6.47;;
7100;SDS011;67978;48.710;8.720;2023-03-05T14:09:07;12.27;;;6.43;;
7100;SDS011;67978;48.710;8.720;2023-03-05T14:11:52;13.23;;;6.77;;
7100;SDS011;67978;48.710;8.720;2023-03-05T14:14:25;11.53;;;6.07;;
7100;SDS011;67978;48.710;8.720;2023-03-05T14:16:55;12.00;;;5.73;;
7100;SDS011;67978;48.710;8.720;2023-03-05T14:19:46;12.43;;;5.30;;
7100;SDS011;67978;48.710;8.720;2023-03-05T14:22:26;11.47;;;5.40;;
7100;SDS011;67978;48.710;8.720;2023-03-05T14:24:56;14.57;;;6.13;;
7100;SDS011;67978;48.710;8.720;2023-03-05T14:27:23;12.93;;;5.60;;
7100;SDS011;67978;48.710;8.720;2023-03-05T14:29:50;11.43;;;5.77;;
7100;SDS011;67978;48.710;8.720;2023-03-05T14:32:20;10.87;;;5.60;;
7100;SDS011;67978;48.710;8.720;2023-03-05T14:34:54;14.17;;;6.33;;
7100;SDS011;67978;48.710;8.720;2023-03-05T14:37:30;10.90;;;5.93;;
7100;SDS011;67978;48.710;8.720;2023-03-05T14:40:01;11.40;;;5.60;;
7100;SDS011;67978;48.710;8.720;2023-03-05T14:42:31;11.27;;;5.77;;
7100;SDS011;67978;48.710;8.720;2023-03-05T14:45:03;13.40;;;5.73;;
7100;SDS011;67978;48.710;8.720;2023-03-05T14:47:38;11.77;;;6.07;;
7100;SDS011;67978;48.710;8.720;2023-03-05T14:50:06;10.77;;;5.30;;
7100;SDS011;67978;48.710;8.720;2023-03-05T14:52:35;13.77;;;5.97;;
7100;SDS011;67978;48.710;8.720;2023-03-05T14:55:02;12.07;;;6.00;;
7100;SDS011;67978;48.710;8.720;2023-03-05T14:57:30;13.40;;;5.33;;
7100;SDS011;67978;48.710;8.720;2023-03-05T14:59:57;10.00;;;5.70;;
7100;SDS011;67978;48.710;8.720;2023-03-05T15:02:25;12.23;;;6.17;;
7100;SDS011;67978;48.710;8.720;2023-03-05T15:04:53;13.23;;;5.90;;
7100;SDS011;67978;48.710;8.720;2023-03-05T15:07:21;12.90;;;5.43;;
7100;SDS011;67978;48.710;8.720;2023-03-05T15:09:52;9.90;;;6.10;;
7100;SDS011;67978;48.710;8.720;2023-03-05T15:12:19;20.77;;;7.20;;
7100;SDS011;67978;48.710;8.720;2023-03-05T15:14:48;15.93;;;6.03;;